createdAt,value
2018-02-09T00:02:06.640Z,134.73
2018-02-09T00:04:34.174Z,134.87
2018-02-09T00:07:02.497Z,127.13
2018-02-09T00:09:30.048Z,124.87
2018-02-09T00:11:57.578Z,125.87
2018-02-09T00:14:25.131Z,129.23
2018-02-09T00:16:52.662Z,126.03
2018-02-09T00:19:20.214Z,121.30
2018-02-09T00:21:47.743Z,125.97
2018-02-09T00:24:15.309Z,128.90
2018-02-09T00:26:42.842Z,126.70
2018-02-09T00:29:10.402Z,139.90
2018-02-09T00:31:37.930Z,120.43
2018-02-09T00:34:05.462Z,127.60
2018-02-09T00:36:33.009Z,134.37
2018-02-09T00:39:01.534Z,117.87
2018-02-09T00:41:29.863Z,119.97
2018-02-09T00:43:57.398Z,120.70
2018-02-09T00:46:24.986Z,121.10
2018-02-09T00:48:52.516Z,127.43
2018-02-09T00:51:20.068Z,116.53
2018-02-09T00:53:47.599Z,131.47
2018-02-09T00:56:15.164Z,125.00
2018-02-09T00:58:42.739Z,135.10
2018-02-09T01:01:10.279Z,128.97
2018-02-09T01:03:37.868Z,122.70
2018-02-09T01:06:05.411Z,123.40
2018-02-09T01:08:33.738Z,122.30
2018-02-09T01:11:01.275Z,128.90
2018-02-09T01:13:28.856Z,140.13
2018-02-09T01:15:56.420Z,117.50
2018-02-09T01:18:23.982Z,112.00
2018-02-09T01:20:51.513Z,126.83
2018-02-09T01:23:20.004Z,118.53
2018-02-09T01:25:47.564Z,112.13
2018-02-09T01:28:15.094Z,111.57
2018-02-09T01:30:43.410Z,117.03
2018-02-09T01:33:10.947Z,113.50
2018-02-09T01:35:38.520Z,125.63
2018-02-09T01:38:06.048Z,112.70
2018-02-09T01:40:33.615Z,122.97
2018-02-09T01:43:01.149Z,111.43
2018-02-09T01:45:29.478Z,129.07
2018-02-09T01:47:57.006Z,127.10
2018-02-09T01:50:24.538Z,148.97
2018-02-09T01:52:52.110Z,116.10
2018-02-09T01:55:27.061Z,142.00
2018-02-09T01:57:55.539Z,115.27
2018-02-09T02:00:24.115Z,127.67
2018-02-09T02:02:51.645Z,137.53
2018-02-09T02:05:19.972Z,132.30
2018-02-09T02:07:47.503Z,123.13
2018-02-09T02:10:15.043Z,122.57
2018-02-09T02:12:42.603Z,121.27
2018-02-09T02:15:10.125Z,131.97
2018-02-09T02:17:37.694Z,124.80
2018-02-09T02:20:06.908Z,119.77
2018-02-09T02:22:35.409Z,112.67
2018-02-09T02:25:03.918Z,124.07
2018-02-09T02:27:31.446Z,115.80
2018-02-09T02:29:59.008Z,123.23
2018-02-09T02:32:26.548Z,115.70
2018-02-09T02:34:54.069Z,118.07
2018-02-09T02:37:23.598Z,115.53
2018-02-09T02:39:52.126Z,117.47
2018-02-09T02:42:20.647Z,111.73
2018-02-09T02:44:48.182Z,109.80
2018-02-09T02:47:16.665Z,114.83
2018-02-09T02:49:44.218Z,123.33
2018-02-09T02:52:11.748Z,115.43
2018-02-09T02:54:40.072Z,120.40
2018-02-09T02:57:07.592Z,124.60
2018-02-09T02:59:35.125Z,120.10
2018-02-09T03:02:02.689Z,120.07
2018-02-09T03:04:31.203Z,113.80
2018-02-09T03:07:00.693Z,115.10
2018-02-09T03:09:28.986Z,116.70
2018-02-09T03:11:56.533Z,119.07
2018-02-09T03:14:26.068Z,121.37
2018-02-09T03:16:53.602Z,114.83
2018-02-09T03:19:22.124Z,114.60
2018-02-09T03:21:49.666Z,113.27
2018-02-09T03:24:17.202Z,118.50
2018-02-09T03:26:44.762Z,117.20
2018-02-09T03:29:12.308Z,111.20
2018-02-09T03:31:40.632Z,121.53
2018-02-09T03:34:08.167Z,123.33
2018-02-09T03:36:35.698Z,111.57
2018-02-09T03:39:04.218Z,117.73
2018-02-09T03:41:31.753Z,122.43
2018-02-09T03:43:59.519Z,120.83
2018-02-09T03:46:27.046Z,128.97
2018-02-09T03:48:54.588Z,126.10
2018-02-09T03:51:22.148Z,131.17
2018-02-09T03:53:49.692Z,134.30
2018-02-09T03:56:17.242Z,132.93
2018-02-09T03:58:44.770Z,131.67
2018-02-09T04:01:12.302Z,122.60
2018-02-09T04:03:41.611Z,115.53
2018-02-09T04:06:09.141Z,123.87
2018-02-09T04:08:36.717Z,132.60
2018-02-09T04:11:04.262Z,123.60
2018-02-09T04:13:32.754Z,123.50
2018-02-09T04:16:01.081Z,127.17
2018-02-09T04:18:28.618Z,126.83
2018-02-09T04:20:57.156Z,118.23
2018-02-09T04:23:25.648Z,141.53
2018-02-09T04:25:53.174Z,126.10
2018-02-09T04:28:20.734Z,125.77
2018-02-09T04:30:48.269Z,123.57
2018-02-09T04:33:15.830Z,121.80
2018-02-09T04:35:43.370Z,125.90
2018-02-09T04:38:10.922Z,129.37
2018-02-09T04:40:39.264Z,120.53
2018-02-09T04:43:06.794Z,127.97
2018-02-09T04:45:34.350Z,120.60
2018-02-09T04:48:01.874Z,118.77
2018-02-09T04:50:29.413Z,124.83
2018-02-09T04:52:56.973Z,119.40
2018-02-09T04:55:25.472Z,117.57
2018-02-09T04:57:53.020Z,113.20
2018-02-09T05:00:20.559Z,113.83
2018-02-09T05:02:48.103Z,109.30
2018-02-09T05:05:15.676Z,117.63
2018-02-09T05:07:43.218Z,105.87
2018-02-09T05:10:10.783Z,123.57
2018-02-09T05:12:38.343Z,115.33
2018-02-09T05:15:07.626Z,117.90
2018-02-09T05:17:35.198Z,127.20
2018-02-09T05:20:02.749Z,129.23
2018-02-09T05:22:30.313Z,132.47
2018-02-09T05:24:57.853Z,129.80
2018-02-09T05:27:26.339Z,123.93
2018-02-09T05:29:53.907Z,129.50
2018-02-09T05:32:22.558Z,121.20
2018-02-09T05:34:52.071Z,128.43
2018-02-09T05:37:19.603Z,133.23
2018-02-09T05:39:47.892Z,122.30
2018-02-09T05:42:15.454Z,120.33
2018-02-09T05:44:42.982Z,127.57
2018-02-09T05:47:10.543Z,121.43
2018-02-09T05:49:38.080Z,121.27
2018-02-09T05:52:06.584Z,119.50
2018-02-09T05:54:34.911Z,132.10
2018-02-09T05:57:02.439Z,127.37
2018-02-09T05:59:29.998Z,121.70
2018-02-09T06:01:58.311Z,130.53
2018-02-09T06:04:25.837Z,120.87
2018-02-09T06:06:54.172Z,116.33
2018-02-09T06:09:22.654Z,131.80
2018-02-09T06:11:52.129Z,132.83
2018-02-09T06:14:19.683Z,137.63
2018-02-09T06:16:47.211Z,137.07
2018-02-09T06:19:16.703Z,137.27
2018-02-09T06:21:44.222Z,121.70
2018-02-09T06:24:11.774Z,129.87
2018-02-09T06:26:39.306Z,126.20
2018-02-09T06:29:06.847Z,129.10
2018-02-09T06:31:34.410Z,119.83
2018-02-09T06:34:02.728Z,130.40
2018-02-09T06:36:30.309Z,129.97
2018-02-09T06:38:57.838Z,125.23
2018-02-09T06:41:25.360Z,122.40
2018-02-09T06:43:53.678Z,119.73
2018-02-09T06:46:21.206Z,123.73
2018-02-09T06:48:48.760Z,125.77
2018-02-09T06:51:17.061Z,121.77
2018-02-09T06:53:44.595Z,124.03
2018-02-09T06:56:12.154Z,113.03
2018-02-09T06:58:39.685Z,83.03
2018-02-09T07:01:07.210Z,74.33
2018-02-09T07:03:34.766Z,72.67
2018-02-09T07:06:04.021Z,82.40
2018-02-09T07:08:32.321Z,68.03
2018-02-09T07:10:59.898Z,68.23
2018-02-09T07:13:27.424Z,66.57
2018-02-09T07:15:54.970Z,66.00
2018-02-09T07:18:23.261Z,59.20
2018-02-09T07:20:50.791Z,60.90
2018-02-09T07:23:18.352Z,62.03
2018-02-09T07:25:45.881Z,60.30
2018-02-09T07:28:13.438Z,63.77
2018-02-09T07:30:40.982Z,59.33
2018-02-09T07:33:08.516Z,56.47
2018-02-09T07:35:36.073Z,64.10
2018-02-09T07:38:04.614Z,56.23
2018-02-09T07:40:32.178Z,73.80
2018-02-09T07:42:59.731Z,86.37
2018-02-09T07:45:27.270Z,74.97
2018-02-09T07:47:54.828Z,77.90
2018-02-09T07:50:22.361Z,83.00
2018-02-09T07:52:49.922Z,87.40
2018-02-09T07:55:17.466Z,69.07
2018-02-09T07:57:44.998Z,77.53
2018-02-09T08:00:12.552Z,68.47
2018-02-09T08:02:40.110Z,76.90
2018-02-09T08:05:09.643Z,89.27
2018-02-09T08:07:37.172Z,87.43
2018-02-09T08:10:06.406Z,96.73
2018-02-09T08:12:33.961Z,86.57
2018-02-09T08:15:01.507Z,83.97
2018-02-09T08:17:29.062Z,84.83
2018-02-09T08:19:56.594Z,86.53
2018-02-09T08:22:24.897Z,74.23
2018-02-09T08:24:52.441Z,59.97
2018-02-09T08:27:19.958Z,49.80
2018-02-09T08:29:47.511Z,48.83
2018-02-09T08:32:15.043Z,48.63
2018-02-09T08:34:42.575Z,49.40
2018-02-09T08:37:10.126Z,60.10
2018-02-09T08:39:37.652Z,69.30
2018-02-09T08:42:05.208Z,77.77
2018-02-09T08:44:32.734Z,74.73
2018-02-09T08:47:01.220Z,77.20
2018-02-09T08:49:28.766Z,81.17
2018-02-09T08:51:56.291Z,82.80
2018-02-09T08:54:23.840Z,83.03
2018-02-09T08:56:51.369Z,82.47
2018-02-09T08:59:18.911Z,87.77
2018-02-09T09:01:47.223Z,73.60
2018-02-09T09:04:14.746Z,69.80
2018-02-09T09:06:44.018Z,71.87
2018-02-09T09:09:12.642Z,92.37
2018-02-09T09:11:40.212Z,83.87
2018-02-09T09:14:09.717Z,77.60
2018-02-09T09:16:37.253Z,81.57
2018-02-09T09:19:04.810Z,88.03
2018-02-09T09:21:32.344Z,83.10
2018-02-09T09:23:59.870Z,83.10
2018-02-09T09:26:27.425Z,82.97
2018-02-09T09:28:55.930Z,86.33
2018-02-09T09:31:25.436Z,97.53
2018-02-09T09:33:52.962Z,102.73
2018-02-09T09:36:20.485Z,101.43
2018-02-09T09:38:48.809Z,115.23
2018-02-09T09:41:16.334Z,106.70
2018-02-09T09:43:43.882Z,117.33
2018-02-09T09:46:11.441Z,124.17
2018-02-09T09:48:39.736Z,122.90
2018-02-09T09:51:07.289Z,114.80
2018-02-09T09:53:34.819Z,116.50
2018-02-09T09:56:03.146Z,133.03
2018-02-09T09:58:30.674Z,134.20
2018-02-09T10:00:58.219Z,133.80
2018-02-09T10:03:25.766Z,140.27
2018-02-09T10:05:54.253Z,140.23
2018-02-09T10:08:22.582Z,134.20
2018-02-09T10:10:51.086Z,132.60
2018-02-09T10:13:18.620Z,136.00
2018-02-09T10:15:46.184Z,132.13
2018-02-09T10:18:13.711Z,137.57
2018-02-09T10:20:41.293Z,132.83
2018-02-09T10:23:08.825Z,137.80
2018-02-09T10:25:37.387Z,131.03
2018-02-09T10:28:05.687Z,117.87
2018-02-09T10:30:34.170Z,135.10
2018-02-09T10:33:01.731Z,129.97
2018-02-09T10:35:29.274Z,133.43
2018-02-09T10:37:56.826Z,139.50
2018-02-09T10:40:25.114Z,146.63
2018-02-09T10:42:52.651Z,133.33
2018-02-09T10:45:20.205Z,148.27
2018-02-09T10:47:47.735Z,134.90
2018-02-09T10:50:17.222Z,144.40
2018-02-09T10:52:47.598Z,137.73
2018-02-09T10:55:15.125Z,131.90
2018-02-09T10:57:42.673Z,139.90
2018-02-09T11:00:10.198Z,141.83
2018-02-09T11:02:37.748Z,137.43
2018-02-09T11:05:06.294Z,138.27
2018-02-09T11:07:33.818Z,152.97
2018-02-09T11:10:01.383Z,135.93
2018-02-09T11:12:34.593Z,129.17
2018-02-09T11:15:02.596Z,134.20
2018-02-09T11:17:31.118Z,139.13
2018-02-09T11:19:58.914Z,123.57
2018-02-09T11:22:26.450Z,135.60
2018-02-09T11:24:53.997Z,145.93
2018-02-09T11:27:24.790Z,139.93
2018-02-09T11:29:53.280Z,140.03
2018-02-09T11:32:20.860Z,130.52
2018-02-09T11:34:48.386Z,138.50
2018-02-09T11:37:15.922Z,148.93
2018-02-09T11:39:43.483Z,128.67
2018-02-09T11:42:11.017Z,130.37
2018-02-09T11:44:38.573Z,130.53
2018-02-09T11:47:07.096Z,141.93
2018-02-09T11:49:34.703Z,134.97
2018-02-09T11:52:02.276Z,127.47
2018-02-09T11:54:29.799Z,130.60
2018-02-09T11:56:57.358Z,138.10
2018-02-09T11:59:24.887Z,138.90
2018-02-09T12:01:53.121Z,130.43
2018-02-09T12:04:20.697Z,133.13
2018-02-09T12:06:49.214Z,128.83
2018-02-09T12:09:17.542Z,132.47
2018-02-09T12:11:45.090Z,138.10
2018-02-09T12:14:13.123Z,120.90
2018-02-09T12:16:40.679Z,128.70
2018-02-09T12:19:09.323Z,130.63
2018-02-09T12:21:36.877Z,140.53
2018-02-09T12:24:04.398Z,128.83
2018-02-09T12:26:32.957Z,133.67
2018-02-09T12:29:00.513Z,130.83
2018-02-09T12:31:29.168Z,145.70
2018-02-09T12:33:57.532Z,130.27
2018-02-09T12:36:25.106Z,135.37
2018-02-09T12:38:52.630Z,134.13
2018-02-09T12:41:20.155Z,130.73
2018-02-09T12:43:47.698Z,140.30
2018-02-09T12:46:16.178Z,136.77
2018-02-09T12:48:43.776Z,121.97
2018-02-09T12:51:12.047Z,137.23
2018-02-09T12:53:39.579Z,130.27
2018-02-09T12:56:07.154Z,140.57
2018-02-09T12:58:34.702Z,111.17
2018-02-09T13:01:02.256Z,119.47
2018-02-09T13:03:29.790Z,125.33
2018-02-09T13:05:57.325Z,133.60
2018-02-09T13:08:24.881Z,119.07
2018-02-09T13:10:52.451Z,107.20
2018-02-09T13:13:20.003Z,114.20
2018-02-09T13:15:47.543Z,111.80
2018-02-09T13:18:30.105Z,111.40
2018-02-09T13:20:57.697Z,94.10
2018-02-09T13:23:37.150Z,109.50
2018-02-09T13:26:04.693Z,114.27
2018-02-09T13:28:44.878Z,107.70
2018-02-09T13:31:12.455Z,112.87
2018-02-09T13:33:39.989Z,106.50
2018-02-09T13:36:07.690Z,106.90
2018-02-09T13:38:35.234Z,95.73
2018-02-09T13:41:02.780Z,97.07
2018-02-09T13:43:30.380Z,98.50
2018-02-09T13:45:57.919Z,93.13
2018-02-09T13:48:25.485Z,91.50
2018-02-09T13:50:53.038Z,96.00
2018-02-09T13:53:20.635Z,97.63
2018-02-09T13:55:48.217Z,92.50
2018-02-09T13:58:15.850Z,94.00
2018-02-09T14:00:43.379Z,95.00
2018-02-09T14:03:10.993Z,95.40
2018-02-09T14:05:38.498Z,86.03
2018-02-09T14:08:06.094Z,89.63
2018-02-09T14:10:33.652Z,81.30
2018-02-09T14:13:01.194Z,85.43
2018-02-09T14:15:28.764Z,75.87
2018-02-09T14:17:56.310Z,82.83
2018-02-09T14:20:23.870Z,69.17
2018-02-09T14:22:51.398Z,74.50
2018-02-09T14:25:18.932Z,73.90
2018-02-09T14:27:46.492Z,83.57
2018-02-09T14:30:14.015Z,75.93
2018-02-09T14:32:41.566Z,75.00
2018-02-09T14:35:09.101Z,89.93
2018-02-09T14:37:36.621Z,98.90
2018-02-09T14:40:06.876Z,69.13
2018-02-09T14:42:34.399Z,96.13
2018-02-09T14:45:02.120Z,60.40
2018-02-09T14:47:29.643Z,62.57
2018-02-09T14:49:57.164Z,63.70
2018-02-09T14:52:24.729Z,70.60
2018-02-09T14:54:52.254Z,65.00
2018-02-09T14:57:19.809Z,48.43
2018-02-09T14:59:47.334Z,57.50
2018-02-09T15:02:14.881Z,50.40
2018-02-09T15:04:42.430Z,46.40
2018-02-09T15:07:11.665Z,54.23
2018-02-09T15:09:39.225Z,54.23
2018-02-09T15:12:06.761Z,58.20
2018-02-09T15:14:34.279Z,53.40
2018-02-09T15:17:01.851Z,56.63
2018-02-09T15:19:29.372Z,73.40
2018-02-09T15:21:56.925Z,73.70
2018-02-09T15:24:24.738Z,81.63
2018-02-09T15:26:53.051Z,69.57
2018-02-09T15:29:20.608Z,66.50
2018-02-09T15:31:48.127Z,64.17
2018-02-09T15:34:15.677Z,61.00
2018-02-09T15:36:43.200Z,67.83
2018-02-09T15:39:10.731Z,75.80
2018-02-09T15:41:38.289Z,81.93
2018-02-09T15:44:05.821Z,70.90
2018-02-09T15:46:34.143Z,78.50
2018-02-09T15:49:01.683Z,77.70
2018-02-09T15:51:29.250Z,80.73
2018-02-09T15:53:56.808Z,80.73
2018-02-09T15:56:25.002Z,66.90
2018-02-09T15:58:52.648Z,57.27
2018-02-09T16:01:21.389Z,51.80
2018-02-09T16:03:48.909Z,68.87
2018-02-09T16:06:16.453Z,55.13
2018-02-09T16:08:44.043Z,58.63
2018-02-09T16:11:12.463Z,56.00
2018-02-09T16:13:42.456Z,48.97
2018-02-09T16:16:09.976Z,65.50
2018-02-09T16:18:37.545Z,52.03
2018-02-09T16:21:05.090Z,54.87
2018-02-09T16:23:32.651Z,70.20
2018-02-09T16:26:00.195Z,58.83
2018-02-09T16:28:27.722Z,50.43
2018-02-09T16:30:56.043Z,56.87
2018-02-09T16:33:23.569Z,54.90
2018-02-09T16:35:51.114Z,51.10
2018-02-09T16:38:18.634Z,48.97
2018-02-09T16:40:46.166Z,80.00
2018-02-09T16:43:13.719Z,54.43
2018-02-09T16:45:41.254Z,52.83
2018-02-09T16:48:11.548Z,60.73
2018-02-09T16:50:39.074Z,57.03
2018-02-09T16:53:06.590Z,61.30
2018-02-09T16:55:34.942Z,47.50
2018-02-09T16:58:02.484Z,46.57
2018-02-09T17:00:30.039Z,44.90
2018-02-09T17:02:58.510Z,50.30
2018-02-09T17:05:27.008Z,44.20
2018-02-09T17:07:54.596Z,54.63
2018-02-09T17:10:22.130Z,45.80
2018-02-09T17:12:49.738Z,48.83
2018-02-09T17:15:17.289Z,52.50
2018-02-09T17:17:44.811Z,58.63
2018-02-09T17:20:12.370Z,44.47
2018-02-09T17:22:39.942Z,56.43
2018-02-09T17:25:07.802Z,67.87
2018-02-09T17:27:35.342Z,63.33
2018-02-09T17:30:02.871Z,50.27
2018-02-09T17:32:30.447Z,83.83
2018-02-09T17:34:57.972Z,65.13
2018-02-09T17:37:26.316Z,68.83
2018-02-09T17:39:53.839Z,65.37
2018-02-09T17:42:21.410Z,53.80
2018-02-09T17:44:48.933Z,62.73
2018-02-09T17:47:16.465Z,63.73
2018-02-09T17:49:44.835Z,69.17
2018-02-09T17:52:12.363Z,74.60
2018-02-09T17:54:41.865Z,62.90
2018-02-09T17:57:10.352Z,64.50
2018-02-09T17:59:37.882Z,72.77
2018-02-09T18:02:05.450Z,77.90
2018-02-09T18:04:38.877Z,71.03
2018-02-09T18:07:06.443Z,69.57
2018-02-09T18:09:33.975Z,73.23
2018-02-09T18:12:01.497Z,67.00
2018-02-09T18:14:29.059Z,70.83
2018-02-09T18:16:56.586Z,76.00
2018-02-09T18:19:24.138Z,91.40
2018-02-09T18:21:51.666Z,81.80
2018-02-09T18:24:19.185Z,66.40
2018-02-09T18:26:48.710Z,77.80
2018-02-09T18:29:16.253Z,64.40
2018-02-09T18:31:43.815Z,53.90
2018-02-09T18:34:11.345Z,55.13
2018-02-09T18:36:38.926Z,57.93
2018-02-09T18:39:06.525Z,58.20
2018-02-09T18:41:34.978Z,60.73
2018-02-09T18:44:02.542Z,63.07
2018-02-09T18:46:30.061Z,48.97
2018-02-09T18:48:57.579Z,59.50
2018-02-09T18:51:25.151Z,84.40
2018-02-09T18:53:52.709Z,116.87
2018-02-09T18:56:20.234Z,111.87
2018-02-09T18:58:47.804Z,208.07
2018-02-09T19:01:15.384Z,116.07
2018-02-09T19:03:42.918Z,96.37
2018-02-09T19:06:10.548Z,79.17
2018-02-09T19:08:38.858Z,65.03
2018-02-09T19:11:06.392Z,76.23
2018-02-09T19:13:33.947Z,58.83
2018-02-09T19:16:02.276Z,62.00
2018-02-09T19:18:29.857Z,60.00
2018-02-09T19:20:57.446Z,61.67
2018-02-09T19:23:24.971Z,51.00
2018-02-09T19:25:52.559Z,52.60
2018-02-09T19:28:20.857Z,60.33
2018-02-09T19:30:48.418Z,49.60
2018-02-09T19:33:16.910Z,60.07
2018-02-09T19:35:44.441Z,54.83
2018-02-09T19:38:12.002Z,46.30
2018-02-09T19:40:39.522Z,51.47
2018-02-09T19:43:07.069Z,53.77
2018-02-09T19:45:34.613Z,66.30
2018-02-09T19:48:02.149Z,60.43
2018-02-09T19:50:29.693Z,55.40
2018-02-09T19:52:57.221Z,55.00
2018-02-09T19:55:24.790Z,54.13
2018-02-09T19:57:53.090Z,58.47
2018-02-09T20:00:20.613Z,55.73
2018-02-09T20:02:48.154Z,56.37
2018-02-09T20:05:15.682Z,58.37
2018-02-09T20:07:43.234Z,55.67
2018-02-09T20:10:10.762Z,59.50
2018-02-09T20:12:39.091Z,59.90
2018-02-09T20:15:07.709Z,61.42
2018-02-09T20:17:35.230Z,64.30
2018-02-09T20:20:02.779Z,63.30
2018-02-09T20:22:31.353Z,63.13
2018-02-09T20:24:59.657Z,64.20
2018-02-09T20:27:27.176Z,73.37
2018-02-09T20:29:54.698Z,70.07
2018-02-09T20:32:22.245Z,58.70
2018-02-09T20:34:49.766Z,65.43
2018-02-09T20:37:17.316Z,72.00
2018-02-09T20:39:44.850Z,60.07
2018-02-09T20:42:12.373Z,63.60
2018-02-09T20:44:39.928Z,54.17
2018-02-09T20:47:07.459Z,66.50
2018-02-09T20:49:35.088Z,55.43
2018-02-09T20:52:02.721Z,75.47
2018-02-09T20:54:30.242Z,63.60
2018-02-09T20:56:57.853Z,61.10
2018-02-09T20:59:26.222Z,74.70
2018-02-09T21:01:53.787Z,68.23
2018-02-09T21:04:21.318Z,64.30
2018-02-09T21:06:48.848Z,47.03
2018-02-09T21:09:16.403Z,44.30
2018-02-09T21:11:43.925Z,73.93
2018-02-09T21:14:11.487Z,45.77
2018-02-09T21:16:39.790Z,50.73
2018-02-09T21:19:07.340Z,48.57
2018-02-09T21:21:34.892Z,52.20
2018-02-09T21:24:02.422Z,49.40
2018-02-09T21:26:29.980Z,45.63
2018-02-09T21:28:57.503Z,45.93
2018-02-09T21:31:25.023Z,47.13
2018-02-09T21:33:53.339Z,56.83
2018-02-09T21:36:20.877Z,45.40
2018-02-09T21:38:50.361Z,52.87
2018-02-09T21:41:17.891Z,44.23
2018-02-09T21:43:45.411Z,45.63
2018-02-09T21:46:12.960Z,59.77
2018-02-09T21:48:40.502Z,43.03
2018-02-09T21:51:08.823Z,47.30
2018-02-09T21:53:36.351Z,46.47
2018-02-09T21:56:03.877Z,46.83
2018-02-09T21:58:32.200Z,45.47
2018-02-09T22:00:59.724Z,49.17
2018-02-09T22:03:29.976Z,42.97
2018-02-09T22:05:57.494Z,45.27
2018-02-09T22:08:25.038Z,47.10
2018-02-09T22:10:52.594Z,45.33
2018-02-09T22:13:20.118Z,42.50
2018-02-09T22:15:47.697Z,42.43
2018-02-09T22:18:15.219Z,41.43
2018-02-09T22:20:42.738Z,53.73
2018-02-09T22:23:10.290Z,50.93
2018-02-09T22:25:37.814Z,55.47
2018-02-09T22:28:05.361Z,64.80
2018-02-09T22:30:33.833Z,69.00
2018-02-09T22:33:01.374Z,66.37
2018-02-09T22:35:28.922Z,55.23
2018-02-09T22:37:56.467Z,53.07
2018-02-09T22:40:24.022Z,61.47
2018-02-09T22:42:52.518Z,54.30
2018-02-09T22:45:20.068Z,60.03
2018-02-09T22:47:47.614Z,55.20
2018-02-09T22:50:16.154Z,47.80
2018-02-09T22:52:43.707Z,50.30
2018-02-09T22:55:11.272Z,49.30
2018-02-09T22:57:38.792Z,49.70
2018-02-09T23:00:06.346Z,46.50
2018-02-09T23:02:34.653Z,45.10
2018-02-09T23:05:03.933Z,42.27
2018-02-09T23:07:31.455Z,43.43
2018-02-09T23:09:59.019Z,44.30
2018-02-09T23:12:26.561Z,40.67
2018-02-09T23:14:54.084Z,37.80
2018-02-09T23:17:21.632Z,40.53
2018-02-09T23:19:49.921Z,43.37
2018-02-09T23:22:18.218Z,38.50
2018-02-09T23:24:45.773Z,42.13
2018-02-09T23:27:13.322Z,45.73
2018-02-09T23:29:40.919Z,45.77
2018-02-09T23:32:08.455Z,45.17
2018-02-09T23:34:35.975Z,43.40
2018-02-09T23:37:03.542Z,44.47
2018-02-09T23:39:31.822Z,39.33
2018-02-09T23:42:00.281Z,38.73
2018-02-09T23:44:27.810Z,39.53
2018-02-09T23:46:55.338Z,38.70
2018-02-09T23:49:24.850Z,40.30
2018-02-09T23:51:52.394Z,40.63
2018-02-09T23:54:19.959Z,41.23
2018-02-09T23:56:47.486Z,46.17
2018-02-09T23:59:15.828Z,39.47
